createdAt,value
2023-04-09T00:00:38.446Z,9.01
2023-04-09T00:03:08.932Z,8.95
2023-04-09T00:05:41.982Z,8.91
2023-04-09T00:08:12.971Z,8.87
2023-04-09T00:10:44.196Z,8.80
2023-04-09T00:13:16.962Z,8.77
2023-04-09T00:15:51.014Z,8.72
2023-04-09T00:18:21.031Z,8.67
2023-04-09T00:20:50.717Z,8.63
2023-04-09T00:23:20.871Z,8.57
2023-04-09T00:25:53.095Z,8.54
2023-04-09T00:28:22.034Z,8.49
2023-04-09T00:30:51.282Z,8.43
2023-04-09T00:33:20.996Z,8.38
2023-04-09T00:35:50.393Z,8.33
2023-04-09T00:38:20.397Z,8.28
2023-04-09T00:40:53.111Z,8.24
2023-04-09T00:43:23.019Z,8.20
2023-04-09T00:45:52.667Z,8.18
2023-04-09T00:48:22.679Z,8.14
2023-04-09T00:50:52.226Z,8.10
2023-04-09T00:53:22.339Z,8.06
2023-04-09T00:55:54.073Z,8.02
2023-04-09T00:58:23.982Z,7.96
2023-04-09T01:00:54.087Z,7.92
2023-04-09T01:03:24.497Z,7.88
2023-04-09T01:06:06.064Z,7.84
2023-04-09T01:08:47.908Z,7.80
2023-04-09T01:11:29.993Z,7.75
2023-04-09T01:14:07.080Z,7.71
2023-04-09T01:16:39.260Z,7.68
2023-04-09T01:19:17.099Z,7.64
2023-04-09T01:21:48.068Z,7.60
2023-04-09T01:24:29.169Z,7.55
2023-04-09T01:27:04.602Z,7.51
2023-04-09T01:29:56.267Z,7.45
2023-04-09T01:32:27.668Z,7.41
2023-04-09T01:34:58.555Z,7.37
2023-04-09T01:37:29.881Z,7.32
2023-04-09T01:40:00.791Z,7.29
2023-04-09T01:42:31.456Z,7.24
2023-04-09T01:45:03.524Z,7.21
2023-04-09T01:47:34.577Z,7.17
2023-04-09T01:50:05.501Z,7.12
2023-04-09T01:52:35.966Z,7.07
2023-04-09T01:55:08.612Z,7.05
2023-04-09T01:57:38.590Z,7.02
2023-04-09T02:00:11.942Z,6.99
2023-04-09T02:02:56.480Z,6.97
2023-04-09T02:05:30.129Z,6.94
2023-04-09T02:08:04.521Z,6.91
2023-04-09T02:10:38.481Z,6.88
2023-04-09T02:13:15.684Z,6.86
2023-04-09T02:15:48.341Z,6.84
2023-04-09T02:18:25.361Z,6.81
2023-04-09T02:20:55.494Z,6.77
2023-04-09T02:23:25.285Z,6.74
2023-04-09T02:25:55.531Z,6.69
2023-04-09T02:28:25.172Z,6.65
2023-04-09T02:30:56.733Z,6.60
2023-04-09T02:33:26.405Z,6.56
2023-04-09T02:35:55.992Z,6.51
2023-04-09T02:38:26.239Z,6.46
2023-04-09T02:40:55.898Z,6.41
2023-04-09T02:43:25.943Z,6.37
2023-04-09T02:45:56.895Z,6.32
2023-04-09T02:48:26.684Z,6.28
2023-04-09T02:50:56.650Z,6.22
2023-04-09T02:53:27.584Z,6.19
2023-04-09T02:56:02.369Z,6.15
2023-04-09T02:58:32.137Z,6.11
2023-04-09T03:01:03.918Z,6.09
2023-04-09T03:03:33.519Z,6.05
2023-04-09T03:06:03.930Z,6.01
2023-04-09T03:08:32.892Z,5.96
2023-04-09T03:11:02.724Z,5.92
2023-04-09T03:13:33.290Z,5.87
2023-04-09T03:16:07.854Z,5.82
2023-04-09T03:18:37.602Z,5.77
2023-04-09T03:21:08.575Z,5.74
2023-04-09T03:23:41.011Z,5.70
2023-04-09T03:26:14.307Z,5.67
2023-04-09T03:28:51.960Z,5.62
2023-04-09T03:31:23.957Z,5.58
2023-04-09T03:33:53.962Z,5.56
2023-04-09T03:36:28.217Z,5.52
2023-04-09T03:39:02.293Z,5.45
2023-04-09T03:41:42.399Z,5.39
2023-04-09T03:44:16.805Z,5.35
2023-04-09T03:47:01.001Z,5.32
2023-04-09T03:49:32.294Z,5.29
2023-04-09T03:52:16.247Z,5.24
2023-04-09T03:54:49.691Z,5.20
2023-04-09T03:57:30.045Z,5.16
2023-04-09T04:00:00.727Z,5.12
2023-04-09T04:02:37.872Z,5.08
2023-04-09T04:05:11.820Z,5.04
2023-04-09T04:07:47.820Z,5.01
2023-04-09T04:10:22.916Z,4.96
2023-04-09T04:12:54.781Z,4.92
2023-04-09T04:15:31.957Z,4.87
2023-04-09T04:18:06.432Z,4.84
2023-04-09T04:20:49.247Z,4.81
2023-04-09T04:23:18.337Z,4.76
2023-04-09T04:25:54.422Z,4.74
2023-04-09T04:28:30.698Z,4.70
2023-04-09T04:30:59.471Z,4.67
2023-04-09T04:33:32.034Z,4.66
2023-04-09T04:36:08.467Z,4.63
2023-04-09T04:38:42.336Z,4.61
2023-04-09T04:41:31.819Z,4.57
2023-04-09T04:44:22.390Z,4.56
2023-04-09T04:47:02.167Z,4.53
2023-04-09T04:49:35.619Z,4.52
2023-04-09T04:52:08.121Z,4.49
2023-04-09T04:54:39.651Z,4.47
2023-04-09T04:57:09.440Z,4.46
2023-04-09T04:59:43.372Z,4.45
2023-04-09T05:02:15.242Z,4.46
2023-04-09T05:05:12.040Z,4.45
2023-04-09T05:07:47.484Z,4.44
2023-04-09T05:10:17.339Z,4.43
2023-04-09T05:12:47.957Z,4.40
2023-04-09T05:15:24.955Z,4.41
2023-04-09T05:17:54.576Z,4.38
2023-04-09T05:20:29.138Z,4.38
2023-04-09T05:23:06.791Z,4.37
2023-04-09T05:25:44.063Z,4.37
2023-04-09T05:28:23.989Z,4.36
2023-04-09T05:31:03.069Z,4.37
2023-04-09T05:33:38.477Z,4.37
2023-04-09T05:36:18.875Z,4.37
2023-04-09T05:38:48.984Z,4.38
2023-04-09T05:41:18.278Z,4.39
2023-04-09T05:43:59.478Z,4.41
2023-04-09T05:46:33.996Z,4.43
2023-04-09T05:49:03.817Z,4.45
2023-04-09T05:51:36.713Z,4.48
2023-04-09T05:54:06.717Z,4.51
2023-04-09T05:56:39.156Z,4.54
2023-04-09T05:59:08.856Z,4.59
2023-04-09T06:01:38.348Z,4.63
2023-04-09T06:04:07.578Z,4.66
2023-04-09T06:06:39.426Z,4.71
2023-04-09T06:09:08.319Z,4.76
2023-04-09T06:11:40.470Z,4.82
2023-04-09T06:14:16.453Z,4.87
2023-04-09T06:16:46.085Z,4.92
2023-04-09T06:19:18.015Z,4.99
2023-04-09T06:21:48.411Z,5.04
2023-04-09T06:24:17.267Z,5.11
2023-04-09T06:26:46.328Z,5.17
2023-04-09T06:29:15.853Z,5.24
2023-04-09T06:31:45.035Z,5.32
2023-04-09T06:34:13.944Z,5.38
2023-04-09T06:36:43.984Z,5.46
2023-04-09T06:39:14.540Z,5.53
2023-04-09T06:41:46.442Z,5.60
2023-04-09T06:44:35.452Z,5.69
2023-04-09T06:47:04.729Z,5.76
2023-04-09T06:49:33.652Z,5.84
2023-04-09T06:52:02.374Z,5.93
2023-04-09T06:54:32.659Z,6.00
2023-04-09T06:57:01.791Z,6.08
2023-04-09T06:59:31.222Z,6.16
2023-04-09T07:02:01.257Z,6.24
2023-04-09T07:04:30.565Z,6.31
2023-04-09T07:07:01.452Z,6.40
2023-04-09T07:09:32.529Z,6.49
2023-04-09T07:12:01.397Z,6.59
2023-04-09T07:14:30.991Z,6.66
2023-04-09T07:17:00.430Z,6.76
2023-04-09T07:19:29.892Z,6.84
2023-04-09T07:21:58.972Z,6.91
2023-04-09T07:24:27.816Z,7.01
2023-04-09T07:26:58.372Z,7.10
2023-04-09T07:29:27.474Z,7.20
2023-04-09T07:31:56.818Z,7.31
2023-04-09T07:34:26.212Z,7.38
2023-04-09T07:36:55.776Z,7.47
2023-04-09T07:39:25.807Z,7.57
2023-04-09T07:41:56.537Z,7.64
2023-04-09T07:44:27.568Z,7.74
2023-04-09T07:46:56.800Z,7.82
2023-04-09T07:49:26.109Z,7.90
2023-04-09T07:51:56.612Z,7.98
2023-04-09T07:54:26.811Z,8.06
2023-04-09T07:56:57.094Z,8.14
2023-04-09T07:59:28.602Z,8.24
2023-04-09T08:01:57.848Z,8.31
2023-04-09T08:04:27.689Z,8.39
2023-04-09T08:06:57.451Z,8.48
2023-04-09T08:09:33.749Z,8.57
2023-04-09T08:12:02.620Z,8.65
2023-04-09T08:14:33.908Z,8.73
2023-04-09T08:17:03.582Z,8.81
2023-04-09T08:19:32.579Z,8.91
2023-04-09T08:22:02.652Z,8.98
2023-04-09T08:24:32.169Z,9.05
2023-04-09T08:27:02.088Z,9.13
2023-04-09T08:29:36.585Z,9.21
2023-04-09T08:32:06.670Z,9.28
2023-04-09T08:34:37.750Z,9.36
2023-04-09T08:37:07.399Z,9.41
2023-04-09T08:39:37.243Z,9.49
2023-04-09T08:42:08.757Z,9.55
2023-04-09T08:44:45.735Z,9.61
2023-04-09T08:47:15.781Z,9.67
2023-04-09T08:49:45.689Z,9.75
2023-04-09T08:52:16.537Z,9.83
2023-04-09T08:54:47.693Z,9.89
2023-04-09T08:57:17.945Z,9.95
2023-04-09T09:00:05.299Z,10.00
2023-04-09T09:02:35.322Z,10.06
2023-04-09T09:05:06.916Z,10.13
2023-04-09T09:07:36.300Z,10.17
2023-04-09T09:10:06.530Z,10.21
2023-04-09T09:12:39.450Z,10.23
2023-04-09T09:15:28.908Z,10.25
2023-04-09T09:18:00.913Z,10.30
2023-04-09T09:20:33.283Z,10.36
2023-04-09T09:23:02.805Z,10.43
2023-04-09T09:25:32.473Z,10.51
2023-04-09T09:28:10.356Z,10.61
2023-04-09T09:30:42.766Z,10.67
2023-04-09T09:33:12.734Z,10.76
2023-04-09T09:35:55.279Z,10.83
2023-04-09T09:38:25.565Z,10.88
2023-04-09T09:40:56.348Z,10.96
2023-04-09T09:43:27.515Z,11.06
2023-04-09T09:45:59.791Z,11.16
2023-04-09T09:48:29.410Z,11.26
2023-04-09T09:51:00.085Z,11.35
2023-04-09T09:53:31.791Z,11.41
2023-04-09T09:56:03.127Z,11.50
2023-04-09T09:58:38.221Z,11.57
2023-04-09T10:01:15.627Z,11.66
2023-04-09T10:03:46.927Z,11.76
2023-04-09T10:06:17.197Z,11.86
2023-04-09T10:08:51.308Z,11.94
2023-04-09T10:11:23.793Z,12.01
2023-04-09T10:13:58.857Z,12.03
2023-04-09T10:16:35.827Z,12.06
2023-04-09T10:19:07.342Z,12.13
2023-04-09T10:21:43.831Z,12.22
2023-04-09T10:24:16.168Z,12.26
2023-04-09T10:26:46.453Z,12.32
2023-04-09T10:29:18.540Z,12.39
2023-04-09T10:31:53.533Z,12.43
2023-04-09T10:34:24.602Z,12.54
2023-04-09T10:36:55.204Z,12.64
2023-04-09T10:39:28.878Z,12.77
2023-04-09T10:41:59.939Z,12.86
2023-04-09T10:44:32.430Z,12.97
2023-04-09T10:47:05.984Z,13.02
2023-04-09T10:49:39.252Z,13.05
2023-04-09T10:52:11.780Z,13.07
2023-04-09T10:54:46.588Z,13.12
2023-04-09T10:57:18.182Z,13.20
2023-04-09T10:59:49.353Z,13.30
2023-04-09T11:02:54.842Z,13.47
2023-04-09T11:05:30.638Z,13.59
2023-04-09T11:08:05.745Z,13.70
2023-04-09T11:10:37.135Z,13.74
2023-04-09T11:13:07.008Z,13.77
2023-04-09T11:15:38.574Z,13.84
2023-04-09T11:18:10.144Z,13.95
2023-04-09T11:20:42.394Z,14.09
2023-04-09T11:23:13.653Z,14.17
2023-04-09T11:25:43.326Z,14.26
2023-04-09T11:28:12.201Z,14.35
2023-04-09T11:30:43.106Z,14.50
2023-04-09T11:33:12.988Z,14.64
2023-04-09T11:35:44.146Z,14.74
2023-04-09T11:38:13.760Z,14.73
2023-04-09T11:40:49.508Z,14.72
2023-04-09T11:43:21.142Z,14.81
2023-04-09T11:45:51.067Z,14.94
2023-04-09T11:48:24.360Z,15.06
2023-04-09T11:50:55.348Z,15.20
2023-04-09T11:53:24.823Z,15.30
2023-04-09T11:55:55.947Z,15.45
2023-04-09T11:58:26.913Z,15.58
2023-04-09T12:00:57.670Z,15.72
2023-04-09T12:03:33.712Z,15.85
2023-04-09T12:06:07.180Z,15.89
2023-04-09T12:08:37.887Z,15.87
2023-04-09T12:11:12.809Z,15.89
2023-04-09T12:13:43.729Z,15.88
2023-04-09T12:16:14.024Z,15.83
2023-04-09T12:18:43.858Z,15.77
2023-04-09T12:21:15.613Z,15.74
2023-04-09T12:23:46.316Z,15.74
2023-04-09T12:26:16.091Z,15.79
2023-04-09T12:28:45.634Z,15.80
2023-04-09T12:31:15.375Z,15.82
2023-04-09T12:33:45.563Z,15.83
2023-04-09T12:36:18.108Z,15.83
2023-04-09T12:38:49.441Z,15.88
2023-04-09T12:41:19.266Z,15.94
2023-04-09T12:43:51.661Z,15.96
2023-04-09T12:46:21.439Z,15.97
2023-04-09T12:48:51.181Z,16.01
2023-04-09T12:51:26.875Z,16.09
2023-04-09T12:53:58.963Z,16.13
2023-04-09T12:56:30.239Z,16.12
2023-04-09T12:59:01.494Z,16.07
2023-04-09T13:01:30.768Z,16.09
2023-04-09T13:04:01.205Z,16.19
2023-04-09T13:06:34.524Z,16.28
2023-04-09T13:09:04.807Z,16.46
2023-04-09T13:11:35.191Z,16.60
2023-04-09T13:14:07.629Z,16.71
2023-04-09T13:16:41.146Z,16.74
2023-04-09T13:19:11.923Z,16.85
2023-04-09T13:21:43.412Z,16.97
2023-04-09T13:24:13.788Z,17.09
2023-04-09T13:26:45.080Z,17.15
2023-04-09T13:29:15.182Z,17.17
2023-04-09T13:31:43.832Z,17.17
2023-04-09T13:34:12.704Z,17.11
2023-04-09T13:36:43.779Z,16.99
2023-04-09T13:39:12.247Z,16.86
2023-04-09T13:41:40.840Z,16.74
2023-04-09T13:44:09.462Z,16.68
2023-04-09T13:46:37.849Z,16.77
2023-04-09T13:49:06.354Z,16.97
2023-04-09T13:51:35.114Z,17.20
2023-04-09T13:54:05.999Z,17.40
2023-04-09T13:56:34.796Z,17.60
2023-04-09T13:59:03.363Z,17.78
2023-04-09T14:01:32.072Z,18.00
2023-04-09T14:04:00.954Z,18.09
2023-04-09T14:06:29.508Z,18.12
2023-04-09T14:08:58.019Z,18.22
2023-04-09T14:11:27.828Z,18.36
2023-04-09T14:13:56.335Z,18.43
2023-04-09T14:16:24.963Z,18.48
2023-04-09T14:18:54.502Z,18.51
2023-04-09T14:21:23.290Z,18.51
2023-04-09T14:23:52.192Z,18.58
2023-04-09T14:26:22.205Z,18.69
2023-04-09T14:28:54.081Z,18.85
2023-04-09T14:31:22.831Z,19.02
2023-04-09T14:33:51.448Z,19.19
2023-04-09T14:36:20.788Z,19.35
2023-04-09T14:38:51.342Z,19.46
2023-04-09T14:41:20.060Z,19.55
2023-04-09T14:43:49.854Z,19.68
2023-04-09T14:46:24.708Z,19.86
2023-04-09T14:48:54.777Z,20.01
2023-04-09T14:51:23.853Z,20.15
2023-04-09T14:53:55.916Z,20.24
2023-04-09T14:56:25.425Z,20.24
2023-04-09T14:58:55.719Z,20.25
2023-04-09T15:01:29.680Z,20.30
2023-04-09T15:04:01.181Z,20.38
2023-04-09T15:06:32.352Z,20.39
2023-04-09T15:09:02.033Z,20.36
2023-04-09T15:11:31.178Z,20.13
2023-04-09T15:13:59.943Z,20.01
2023-04-09T15:16:33.176Z,20.12
2023-04-09T15:19:03.150Z,20.23
2023-04-09T15:21:35.042Z,20.42
2023-04-09T15:24:05.086Z,20.59
2023-04-09T15:26:36.992Z,20.74
2023-04-09T15:29:07.714Z,20.88
2023-04-09T15:31:41.307Z,21.00
2023-04-09T15:34:12.133Z,20.95
2023-04-09T15:36:42.416Z,20.92
2023-04-09T15:39:16.176Z,20.95
2023-04-09T15:41:45.042Z,20.99
2023-04-09T15:44:14.615Z,21.04
2023-04-09T15:46:44.644Z,21.07
2023-04-09T15:49:13.372Z,21.06
2023-04-09T15:51:42.231Z,21.02
2023-04-09T15:54:11.267Z,21.01
2023-04-09T15:56:40.459Z,21.00
2023-04-09T15:59:09.647Z,20.92
2023-04-09T16:01:41.511Z,20.85
2023-04-09T16:04:11.676Z,20.60
2023-04-09T16:06:41.635Z,20.33
2023-04-09T16:09:10.431Z,20.08
2023-04-09T16:11:40.536Z,19.79
2023-04-09T16:14:10.621Z,19.51
2023-04-09T16:16:39.447Z,19.24
2023-04-09T16:19:08.609Z,18.99
2023-04-09T16:21:43.977Z,18.78
2023-04-09T16:24:13.962Z,18.61
2023-04-09T16:26:44.862Z,18.46
2023-04-09T16:29:16.230Z,18.42
2023-04-09T16:31:46.573Z,18.44
2023-04-09T16:34:19.217Z,18.50
2023-04-09T16:36:52.571Z,18.60
2023-04-09T16:39:22.191Z,18.68
2023-04-09T16:41:52.224Z,18.74
2023-04-09T16:44:21.184Z,18.80
2023-04-09T16:46:49.963Z,18.83
2023-04-09T16:49:19.538Z,18.86
2023-04-09T16:51:51.993Z,18.85
2023-04-09T16:54:21.135Z,18.83
2023-04-09T16:56:49.855Z,18.79
2023-04-09T16:59:21.179Z,18.72
2023-04-09T17:01:52.003Z,18.58
2023-04-09T17:04:22.115Z,18.47
2023-04-09T17:06:52.472Z,18.31
2023-04-09T17:09:21.162Z,18.15
2023-04-09T17:11:53.010Z,17.99
2023-04-09T17:14:21.449Z,17.82
2023-04-09T17:16:52.881Z,17.63
2023-04-09T17:19:21.992Z,17.45
2023-04-09T17:21:52.130Z,17.28
2023-04-09T17:24:20.808Z,17.11
2023-04-09T17:26:49.452Z,16.94
2023-04-09T17:29:18.675Z,16.81
2023-04-09T17:31:48.875Z,16.68
2023-04-09T17:34:17.500Z,16.54
2023-04-09T17:36:49.696Z,16.38
2023-04-09T17:39:19.884Z,16.28
2023-04-09T17:41:48.901Z,16.18
2023-04-09T17:44:17.809Z,16.07
2023-04-09T17:46:47.102Z,15.97
2023-04-09T17:49:15.822Z,15.87
2023-04-09T17:51:44.646Z,15.77
2023-04-09T17:54:13.558Z,15.65
2023-04-09T17:56:43.977Z,15.54
2023-04-09T17:59:12.424Z,15.44
2023-04-09T18:01:41.151Z,15.35
2023-04-09T18:04:10.918Z,15.24
2023-04-09T18:06:39.664Z,15.15
2023-04-09T18:09:08.173Z,15.02
2023-04-09T18:11:36.680Z,14.94
2023-04-09T18:14:08.059Z,14.84
2023-04-09T18:16:38.230Z,14.78
2023-04-09T18:19:07.531Z,14.70
2023-04-09T18:21:36.908Z,14.64
2023-04-09T18:24:06.029Z,14.57
2023-04-09T18:26:34.560Z,14.48
2023-04-09T18:29:03.252Z,14.39
2023-04-09T18:31:33.120Z,14.31
2023-04-09T18:34:01.778Z,14.23
2023-04-09T18:36:30.578Z,14.15
2023-04-09T18:39:00.392Z,14.07
2023-04-09T18:41:30.115Z,13.98
2023-04-09T18:43:59.185Z,13.87
2023-04-09T18:46:28.207Z,13.76
2023-04-09T18:48:58.107Z,13.65
2023-04-09T18:51:27.247Z,13.56
2023-04-09T18:53:55.907Z,13.49
2023-04-09T18:56:24.715Z,13.42
2023-04-09T18:58:53.477Z,13.34
2023-04-09T19:01:23.199Z,13.26
2023-04-09T19:03:53.662Z,13.17
2023-04-09T19:06:25.527Z,13.09
2023-04-09T19:08:57.981Z,13.01
2023-04-09T19:11:26.645Z,12.92
2023-04-09T19:13:55.380Z,12.85
2023-04-09T19:16:24.149Z,12.79
2023-04-09T19:18:53.113Z,12.73
2023-04-09T19:21:23.843Z,12.65
2023-04-09T19:23:52.325Z,12.58
2023-04-09T19:26:22.228Z,12.52
2023-04-09T19:28:50.952Z,12.47
2023-04-09T19:31:19.684Z,12.41
2023-04-09T19:33:48.336Z,12.37
2023-04-09T19:36:16.963Z,12.30
2023-04-09T19:38:46.862Z,12.24
2023-04-09T19:41:16.170Z,12.19
2023-04-09T19:43:47.010Z,12.13
2023-04-09T19:46:15.610Z,12.05
2023-04-09T19:48:44.817Z,12.01
2023-04-09T19:51:18.389Z,11.96
2023-04-09T19:53:49.265Z,11.90
2023-04-09T19:56:17.983Z,11.84
2023-04-09T19:58:46.600Z,11.78
2023-04-09T20:01:15.089Z,11.74
2023-04-09T20:03:43.864Z,11.70
2023-04-09T20:06:12.898Z,11.66
2023-04-09T20:08:41.672Z,11.63
2023-04-09T20:11:17.426Z,11.60
2023-04-09T20:13:47.543Z,11.57
2023-04-09T20:16:16.622Z,11.55
2023-04-09T20:18:45.351Z,11.49
2023-04-09T20:21:14.534Z,11.45
2023-04-09T20:23:45.216Z,11.42
2023-04-09T20:26:15.523Z,11.39
2023-04-09T20:28:44.272Z,11.35
2023-04-09T20:31:13.102Z,11.33
2023-04-09T20:33:41.969Z,11.29
2023-04-09T20:36:16.243Z,11.27
2023-04-09T20:38:44.883Z,11.22
2023-04-09T20:41:17.010Z,11.20
2023-04-09T20:43:46.477Z,11.16
2023-04-09T20:46:15.131Z,11.12
2023-04-09T20:48:44.672Z,11.07
2023-04-09T20:51:13.193Z,11.03
2023-04-09T20:53:41.852Z,10.99
2023-04-09T20:56:10.413Z,10.94
2023-04-09T20:58:40.390Z,10.92
2023-04-09T21:01:10.382Z,10.88
2023-04-09T21:03:40.169Z,10.84
2023-04-09T21:06:09.485Z,10.80
2023-04-09T21:08:42.610Z,10.79
2023-04-09T21:11:11.292Z,10.75
2023-04-09T21:13:54.003Z,10.74
2023-04-09T21:16:24.831Z,10.70
2023-04-09T21:18:56.440Z,10.68
2023-04-09T21:21:27.336Z,10.65
2023-04-09T21:23:55.923Z,10.62
2023-04-09T21:26:25.036Z,10.60
2023-04-09T21:28:55.609Z,10.57
2023-04-09T21:31:24.917Z,10.56
2023-04-09T21:33:53.539Z,10.54
2023-04-09T21:36:22.053Z,10.52
2023-04-09T21:38:52.898Z,10.51
2023-04-09T21:41:23.519Z,10.48
2023-04-09T21:43:52.243Z,10.46
2023-04-09T21:46:22.984Z,10.45
2023-04-09T21:48:51.949Z,10.42
2023-04-09T21:51:20.707Z,10.41
2023-04-09T21:53:49.558Z,10.39
2023-04-09T21:56:18.103Z,10.37
2023-04-09T21:58:47.535Z,10.35
2023-04-09T22:01:28.261Z,10.32
2023-04-09T22:03:59.776Z,10.30
2023-04-09T22:06:28.964Z,10.27
2023-04-09T22:08:58.553Z,10.26
2023-04-09T22:11:28.780Z,10.22
2023-04-09T22:13:58.420Z,10.19
2023-04-09T22:16:27.537Z,10.17
2023-04-09T22:18:56.461Z,10.13
2023-04-09T22:21:27.730Z,10.12
2023-04-09T22:23:56.289Z,10.11
2023-04-09T22:26:24.978Z,10.09
2023-04-09T22:28:53.895Z,10.08
2023-04-09T22:31:22.885Z,10.07
2023-04-09T22:33:54.535Z,10.06
2023-04-09T22:36:22.977Z,10.04
2023-04-09T22:38:53.247Z,10.01
2023-04-09T22:41:22.876Z,9.99
2023-04-09T22:43:52.455Z,9.97
2023-04-09T22:46:21.413Z,9.94
2023-04-09T22:48:51.659Z,9.91
2023-04-09T22:51:20.198Z,9.86
2023-04-09T22:53:48.746Z,9.82
2023-04-09T22:56:19.473Z,9.76
2023-04-09T22:58:48.200Z,9.72
2023-04-09T23:01:21.863Z,9.67
2023-04-09T23:03:51.283Z,9.61
2023-04-09T23:06:19.853Z,9.57
2023-04-09T23:08:48.429Z,9.52
2023-04-09T23:11:18.436Z,9.46
2023-04-09T23:13:46.933Z,9.42
2023-04-09T23:16:15.536Z,9.37
2023-04-09T23:18:44.746Z,9.33
2023-04-09T23:21:13.322Z,9.28
2023-04-09T23:23:41.892Z,9.21
2023-04-09T23:26:10.438Z,9.17
2023-04-09T23:28:40.387Z,9.10
2023-04-09T23:31:08.900Z,9.07
2023-04-09T23:33:37.482Z,9.03
2023-04-09T23:36:06.668Z,9.00
2023-04-09T23:38:35.365Z,8.94
2023-04-09T23:41:03.925Z,8.91
2023-04-09T23:43:32.522Z,8.88
2023-04-09T23:46:02.471Z,8.85
2023-04-09T23:48:31.051Z,8.82
2023-04-09T23:50:59.610Z,8.80
2023-04-09T23:53:28.101Z,8.78
2023-04-09T23:55:56.615Z,8.75
2023-04-09T23:58:25.518Z,8.71
